sensor_id;sensor_type;location;lat;lon;timestamp;temperature;humidity
12384;DHT22;6256;63.808;20.336;2023-04-25T00:02:18;0.70;99.90
12384;DHT22;6256;63.808;20.336;2023-04-25T00:04:44;0.70;99.90
12384;DHT22;6256;63.808;20.336;2023-04-25T00:07:10;0.70;99.90
12384;DHT22;6256;63.808;20.336;2023-04-25T00:09:37;0.70;99.90
12384;DHT22;6256;63.808;20.336;2023-04-25T00:12:03;0.80;99.90
12384;DHT22;6256;63.808;20.336;2023-04-25T00:14:29;0.80;99.90
12384;DHT22;6256;63.808;20.336;2023-04-25T00:16:55;0.80;99.90
12384;DHT22;6256;63.808;20.336;2023-04-25T00:19:21;0.80;99.90
12384;DHT22;6256;63.808;20.336;2023-04-25T00:21:47;0.70;99.90
12384;DHT22;6256;63.808;20.336;2023-04-25T00:24:13;0.70;99.90
12384;DHT22;6256;63.808;20.336;2023-04-25T00:26:38;0.70;99.90
12384;DHT22;6256;63.808;20.336;2023-04-25T00:29:04;0.70;99.90
12384;DHT22;6256;63.808;20.336;2023-04-25T00:31:30;0.70;99.90
12384;DHT22;6256;63.808;20.336;2023-04-25T00:33:56;0.70;99.90
12384;DHT22;6256;63.808;20.336;2023-04-25T00:36:22;0.70;99.90
12384;DHT22;6256;63.808;20.336;2023-04-25T00:38:47;0.70;99.90
12384;DHT22;6256;63.808;20.336;2023-04-25T00:41:13;0.80;99.90
12384;DHT22;6256;63.808;20.336;2023-04-25T00:43:39;0.80;99.90
12384;DHT22;6256;63.808;20.336;2023-04-25T00:46:05;0.80;99.90
12384;DHT22;6256;63.808;20.336;2023-04-25T00:48:31;0.90;99.90
12384;DHT22;6256;63.808;20.336;2023-04-25T00:50:58;0.90;99.90
12384;DHT22;6256;63.808;20.336;2023-04-25T00:53:25;0.80;99.90
12384;DHT22;6256;63.808;20.336;2023-04-25T00:55:52;0.90;99.90
12384;DHT22;6256;63.808;20.336;2023-04-25T00:58:18;0.90;99.90
12384;DHT22;6256;63.808;20.336;2023-04-25T01:00:46;0.90;99.90
12384;DHT22;6256;63.808;20.336;2023-04-25T01:03:13;0.90;99.90
12384;DHT22;6256;63.808;20.336;2023-04-25T01:05:42;0.90;99.90
12384;DHT22;6256;63.808;20.336;2023-04-25T01:08:08;0.90;99.90
12384;DHT22;6256;63.808;20.336;2023-04-25T01:10:34;0.90;99.90
12384;DHT22;6256;63.808;20.336;2023-04-25T01:13:00;0.90;99.90
12384;DHT22;6256;63.808;20.336;2023-04-25T01:15:26;0.90;99.90
12384;DHT22;6256;63.808;20.336;2023-04-25T01:17:51;0.90;99.90
12384;DHT22;6256;63.808;20.336;2023-04-25T01:20:21;0.90;99.90
12384;DHT22;6256;63.808;20.336;2023-04-25T01:22:48;1.00;99.90
12384;DHT22;6256;63.808;20.336;2023-04-25T01:25:16;1.00;99.90
12384;DHT22;6256;63.808;20.336;2023-04-25T01:27:42;0.90;99.90
12384;DHT22;6256;63.808;20.336;2023-04-25T01:30:08;1.00;99.90
12384;DHT22;6256;63.808;20.336;2023-04-25T01:32:34;1.00;99.90
12384;DHT22;6256;63.808;20.336;2023-04-25T01:35:08;1.00;99.90
12384;DHT22;6256;63.808;20.336;2023-04-25T01:37:42;1.00;99.90
12384;DHT22;6256;63.808;20.336;2023-04-25T01:40:12;1.00;99.90
12384;DHT22;6256;63.808;20.336;2023-04-25T01:42:40;1.00;99.90
12384;DHT22;6256;63.808;20.336;2023-04-25T01:45:07;1.10;99.90
12384;DHT22;6256;63.808;20.336;2023-04-25T01:47:33;1.10;99.90
12384;DHT22;6256;63.808;20.336;2023-04-25T01:50:04;1.00;99.90
12384;DHT22;6256;63.808;20.336;2023-04-25T01:52:30;1.00;99.90
12384;DHT22;6256;63.808;20.336;2023-04-25T01:54:57;1.00;99.90
12384;DHT22;6256;63.808;20.336;2023-04-25T01:57:23;1.00;99.90
12384;DHT22;6256;63.808;20.336;2023-04-25T01:59:49;1.00;99.90
12384;DHT22;6256;63.808;20.336;2023-04-25T02:02:15;1.10;99.90
12384;DHT22;6256;63.808;20.336;2023-04-25T02:04:41;1.00;99.90
12384;DHT22;6256;63.808;20.336;2023-04-25T02:07:06;1.10;99.90
12384;DHT22;6256;63.808;20.336;2023-04-25T02:09:32;1.10;99.90
12384;DHT22;6256;63.808;20.336;2023-04-25T02:11:58;1.10;99.90
12384;DHT22;6256;63.808;20.336;2023-04-25T02:14:24;1.10;99.90
12384;DHT22;6256;63.808;20.336;2023-04-25T02:16:49;1.10;99.90
12384;DHT22;6256;63.808;20.336;2023-04-25T02:19:16;1.00;99.90
12384;DHT22;6256;63.808;20.336;2023-04-25T02:21:42;1.00;99.90
12384;DHT22;6256;63.808;20.336;2023-04-25T02:24:08;1.00;99.90
12384;DHT22;6256;63.808;20.336;2023-04-25T02:26:34;1.00;99.90
12384;DHT22;6256;63.808;20.336;2023-04-25T02:29:00;1.00;99.90
12384;DHT22;6256;63.808;20.336;2023-04-25T02:31:26;1.00;99.90
12384;DHT22;6256;63.808;20.336;2023-04-25T02:33:52;1.00;99.90
12384;DHT22;6256;63.808;20.336;2023-04-25T02:36:17;1.10;99.90
12384;DHT22;6256;63.808;20.336;2023-04-25T02:38:43;1.10;99.90
12384;DHT22;6256;63.808;20.336;2023-04-25T02:41:09;1.20;99.90
12384;DHT22;6256;63.808;20.336;2023-04-25T02:43:35;1.10;99.90
12384;DHT22;6256;63.808;20.336;2023-04-25T02:46:01;1.10;99.90
12384;DHT22;6256;63.808;20.336;2023-04-25T02:48:27;1.10;99.90
12384;DHT22;6256;63.808;20.336;2023-04-25T02:50:53;1.10;99.90
12384;DHT22;6256;63.808;20.336;2023-04-25T02:53:19;1.20;99.90
12384;DHT22;6256;63.808;20.336;2023-04-25T02:55:45;1.20;99.90
12384;DHT22;6256;63.808;20.336;2023-04-25T02:58:11;1.20;99.90
12384;DHT22;6256;63.808;20.336;2023-04-25T03:00:36;1.20;99.90
12384;DHT22;6256;63.808;20.336;2023-04-25T03:03:08;1.20;99.90
12384;DHT22;6256;63.808;20.336;2023-04-25T03:05:34;1.20;99.90
12384;DHT22;6256;63.808;20.336;2023-04-25T03:07:59;1.20;99.90
12384;DHT22;6256;63.808;20.336;2023-04-25T03:10:26;1.20;99.90
12384;DHT22;6256;63.808;20.336;2023-04-25T03:12:51;1.30;99.90
12384;DHT22;6256;63.808;20.336;2023-04-25T03:15:17;1.30;99.90
12384;DHT22;6256;63.808;20.336;2023-04-25T03:17:44;1.30;99.90
12384;DHT22;6256;63.808;20.336;2023-04-25T03:20:10;1.30;99.90
12384;DHT22;6256;63.808;20.336;2023-04-25T03:22:36;1.40;99.90
12384;DHT22;6256;63.808;20.336;2023-04-25T03:25:01;1.40;99.90
12384;DHT22;6256;63.808;20.336;2023-04-25T03:27:28;1.40;99.90
12384;DHT22;6256;63.808;20.336;2023-04-25T03:29:54;1.40;99.90
12384;DHT22;6256;63.808;20.336;2023-04-25T03:32:19;1.40;99.90
12384;DHT22;6256;63.808;20.336;2023-04-25T03:34:45;1.40;99.90
12384;DHT22;6256;63.808;20.336;2023-04-25T03:37:11;1.40;99.90
12384;DHT22;6256;63.808;20.336;2023-04-25T03:39:36;1.40;99.90
12384;DHT22;6256;63.808;20.336;2023-04-25T03:42:04;1.40;99.90
12384;DHT22;6256;63.808;20.336;2023-04-25T03:44:29;1.40;99.90
12384;DHT22;6256;63.808;20.336;2023-04-25T03:46:55;1.30;99.90
12384;DHT22;6256;63.808;20.336;2023-04-25T03:49:21;1.40;99.90
12384;DHT22;6256;63.808;20.336;2023-04-25T03:51:46;1.40;99.90
12384;DHT22;6256;63.808;20.336;2023-04-25T03:54:12;1.40;99.90
12384;DHT22;6256;63.808;20.336;2023-04-25T03:56:38;1.40;99.90
12384;DHT22;6256;63.808;20.336;2023-04-25T03:59:03;1.40;99.90
12384;DHT22;6256;63.808;20.336;2023-04-25T04:01:29;1.50;99.90
12384;DHT22;6256;63.808;20.336;2023-04-25T04:03:55;1.50;99.90
12384;DHT22;6256;63.808;20.336;2023-04-25T04:06:20;1.60;99.90
12384;DHT22;6256;63.808;20.336;2023-04-25T04:08:47;1.60;99.90
12384;DHT22;6256;63.808;20.336;2023-04-25T04:11:12;1.70;99.90
12384;DHT22;6256;63.808;20.336;2023-04-25T04:13:38;1.60;99.90
12384;DHT22;6256;63.808;20.336;2023-04-25T04:16:04;1.60;99.90
12384;DHT22;6256;63.808;20.336;2023-04-25T04:18:30;1.70;99.90
12384;DHT22;6256;63.808;20.336;2023-04-25T04:20:56;1.70;99.90
12384;DHT22;6256;63.808;20.336;2023-04-25T04:23:23;1.80;99.90
12384;DHT22;6256;63.808;20.336;2023-04-25T04:25:49;1.80;99.90
12384;DHT22;6256;63.808;20.336;2023-04-25T04:28:15;1.80;99.90
12384;DHT22;6256;63.808;20.336;2023-04-25T04:30:42;1.80;99.90
12384;DHT22;6256;63.808;20.336;2023-04-25T04:33:08;1.90;99.90
12384;DHT22;6256;63.808;20.336;2023-04-25T04:35:34;1.90;99.90
12384;DHT22;6256;63.808;20.336;2023-04-25T04:38:00;1.90;99.90
12384;DHT22;6256;63.808;20.336;2023-04-25T04:40:25;1.90;99.90
12384;DHT22;6256;63.808;20.336;2023-04-25T04:42:51;1.90;99.90
12384;DHT22;6256;63.808;20.336;2023-04-25T04:45:18;2.00;99.90
12384;DHT22;6256;63.808;20.336;2023-04-25T04:47:44;2.00;99.90
12384;DHT22;6256;63.808;20.336;2023-04-25T04:52:38;2.10;99.90
12384;DHT22;6256;63.808;20.336;2023-04-25T04:55:04;2.10;99.90
12384;DHT22;6256;63.808;20.336;2023-04-25T04:57:31;2.10;99.90
12384;DHT22;6256;63.808;20.336;2023-04-25T04:59:58;2.10;99.90
12384;DHT22;6256;63.808;20.336;2023-04-25T05:02:24;2.10;99.90
12384;DHT22;6256;63.808;20.336;2023-04-25T05:04:51;2.10;99.90
12384;DHT22;6256;63.808;20.336;2023-04-25T05:07:17;2.20;99.90
12384;DHT22;6256;63.808;20.336;2023-04-25T05:09:43;2.20;99.90
12384;DHT22;6256;63.808;20.336;2023-04-25T05:14:35;2.30;99.90
12384;DHT22;6256;63.808;20.336;2023-04-25T05:17:01;2.30;99.90
12384;DHT22;6256;63.808;20.336;2023-04-25T05:19:27;2.40;99.90
12384;DHT22;6256;63.808;20.336;2023-04-25T05:21:52;2.30;99.90
12384;DHT22;6256;63.808;20.336;2023-04-25T05:26:44;2.40;99.90
12384;DHT22;6256;63.808;20.336;2023-04-25T05:29:10;2.40;99.90
12384;DHT22;6256;63.808;20.336;2023-04-25T05:31:36;2.40;99.90
12384;DHT22;6256;63.808;20.336;2023-04-25T05:34:02;2.50;99.90
12384;DHT22;6256;63.808;20.336;2023-04-25T05:36:28;2.50;99.90
12384;DHT22;6256;63.808;20.336;2023-04-25T05:38:54;2.60;99.90
12384;DHT22;6256;63.808;20.336;2023-04-25T05:41:19;2.60;99.90
12384;DHT22;6256;63.808;20.336;2023-04-25T05:43:45;2.60;99.90
12384;DHT22;6256;63.808;20.336;2023-04-25T05:46:14;2.60;99.90
12384;DHT22;6256;63.808;20.336;2023-04-25T05:48:39;2.60;99.90
12384;DHT22;6256;63.808;20.336;2023-04-25T05:51:05;2.70;99.90
12384;DHT22;6256;63.808;20.336;2023-04-25T05:53:31;2.70;99.90
12384;DHT22;6256;63.808;20.336;2023-04-25T05:55:56;2.60;99.90
12384;DHT22;6256;63.808;20.336;2023-04-25T05:58:22;2.60;99.90
12384;DHT22;6256;63.808;20.336;2023-04-25T06:00:48;2.60;99.90
12384;DHT22;6256;63.808;20.336;2023-04-25T06:03:14;2.60;99.90
12384;DHT22;6256;63.808;20.336;2023-04-25T06:05:42;2.70;99.90
12384;DHT22;6256;63.808;20.336;2023-04-25T06:08:09;2.70;99.90
12384;DHT22;6256;63.808;20.336;2023-04-25T06:10:35;2.70;99.90
12384;DHT22;6256;63.808;20.336;2023-04-25T06:13:01;2.70;99.90
12384;DHT22;6256;63.808;20.336;2023-04-25T06:17:53;2.80;99.90
12384;DHT22;6256;63.808;20.336;2023-04-25T06:20:18;2.80;99.90
12384;DHT22;6256;63.808;20.336;2023-04-25T06:22:48;2.80;99.90
12384;DHT22;6256;63.808;20.336;2023-04-25T06:25:14;2.80;99.90
12384;DHT22;6256;63.808;20.336;2023-04-25T06:27:40;2.80;99.90
12384;DHT22;6256;63.808;20.336;2023-04-25T06:30:06;2.80;99.90
12384;DHT22;6256;63.808;20.336;2023-04-25T06:32:32;2.80;99.90
12384;DHT22;6256;63.808;20.336;2023-04-25T06:34:59;2.80;99.90
12384;DHT22;6256;63.808;20.336;2023-04-25T06:37:25;2.90;99.90
12384;DHT22;6256;63.808;20.336;2023-04-25T06:39:51;3.00;99.90
12384;DHT22;6256;63.808;20.336;2023-04-25T06:42:16;3.00;99.90
12384;DHT22;6256;63.808;20.336;2023-04-25T06:44:42;3.00;99.90
12384;DHT22;6256;63.808;20.336;2023-04-25T06:47:08;3.00;99.90
12384;DHT22;6256;63.808;20.336;2023-04-25T06:49:33;3.00;99.90
12384;DHT22;6256;63.808;20.336;2023-04-25T06:51:59;3.00;99.90
12384;DHT22;6256;63.808;20.336;2023-04-25T06:54:25;3.00;99.90
12384;DHT22;6256;63.808;20.336;2023-04-25T06:56:53;3.00;99.90
12384;DHT22;6256;63.808;20.336;2023-04-25T06:59:19;3.10;99.90
12384;DHT22;6256;63.808;20.336;2023-04-25T07:01:44;3.10;99.90
12384;DHT22;6256;63.808;20.336;2023-04-25T07:04:10;3.00;99.90
12384;DHT22;6256;63.808;20.336;2023-04-25T07:06:36;3.00;99.90
12384;DHT22;6256;63.808;20.336;2023-04-25T07:09:08;3.00;99.90
12384;DHT22;6256;63.808;20.336;2023-04-25T07:11:35;3.00;99.90
12384;DHT22;6256;63.808;20.336;2023-04-25T07:14:01;3.00;99.90
12384;DHT22;6256;63.808;20.336;2023-04-25T07:16:27;3.00;99.90
12384;DHT22;6256;63.808;20.336;2023-04-25T07:18:53;2.80;99.90
12384;DHT22;6256;63.808;20.336;2023-04-25T07:21:19;2.90;99.90
12384;DHT22;6256;63.808;20.336;2023-04-25T07:23:45;2.90;99.90
12384;DHT22;6256;63.808;20.336;2023-04-25T07:26:11;2.80;99.90
12384;DHT22;6256;63.808;20.336;2023-04-25T07:28:37;2.80;99.90
12384;DHT22;6256;63.808;20.336;2023-04-25T07:31:03;2.70;99.90
12384;DHT22;6256;63.808;20.336;2023-04-25T07:33:29;2.70;99.90
12384;DHT22;6256;63.808;20.336;2023-04-25T07:35:55;2.70;99.90
12384;DHT22;6256;63.808;20.336;2023-04-25T07:38:21;2.60;99.90
12384;DHT22;6256;63.808;20.336;2023-04-25T07:40:50;2.60;99.90
12384;DHT22;6256;63.808;20.336;2023-04-25T07:43:15;2.60;99.90
12384;DHT22;6256;63.808;20.336;2023-04-25T07:45:45;2.60;99.90
12384;DHT22;6256;63.808;20.336;2023-04-25T07:48:16;2.60;99.90
12384;DHT22;6256;63.808;20.336;2023-04-25T07:50:42;2.50;99.90
12384;DHT22;6256;63.808;20.336;2023-04-25T07:53:07;2.40;99.90
12384;DHT22;6256;63.808;20.336;2023-04-25T07:55:34;2.50;99.90
12384;DHT22;6256;63.808;20.336;2023-04-25T07:57:59;2.40;99.90
12384;DHT22;6256;63.808;20.336;2023-04-25T08:00:25;2.50;99.90
12384;DHT22;6256;63.808;20.336;2023-04-25T08:02:51;2.50;99.90
12384;DHT22;6256;63.808;20.336;2023-04-25T08:05:17;2.40;99.90
12384;DHT22;6256;63.808;20.336;2023-04-25T08:07:42;2.50;99.90
12384;DHT22;6256;63.808;20.336;2023-04-25T08:10:09;2.50;99.90
12384;DHT22;6256;63.808;20.336;2023-04-25T08:12:35;2.60;99.90
12384;DHT22;6256;63.808;20.336;2023-04-25T08:15:01;2.60;99.90
12384;DHT22;6256;63.808;20.336;2023-04-25T08:17:27;2.60;99.90
12384;DHT22;6256;63.808;20.336;2023-04-25T08:19:52;2.60;99.90
12384;DHT22;6256;63.808;20.336;2023-04-25T08:22:18;2.60;99.90
12384;DHT22;6256;63.808;20.336;2023-04-25T08:24:44;2.60;99.90
12384;DHT22;6256;63.808;20.336;2023-04-25T08:27:09;2.70;99.90
12384;DHT22;6256;63.808;20.336;2023-04-25T08:29:36;2.70;99.90
12384;DHT22;6256;63.808;20.336;2023-04-25T08:32:02;2.70;99.90
12384;DHT22;6256;63.808;20.336;2023-04-25T08:34:28;2.70;99.90
12384;DHT22;6256;63.808;20.336;2023-04-25T08:36:53;2.60;99.90
12384;DHT22;6256;63.808;20.336;2023-04-25T08:39:19;2.70;99.90
12384;DHT22;6256;63.808;20.336;2023-04-25T08:41:46;2.70;99.90
12384;DHT22;6256;63.808;20.336;2023-04-25T08:44:12;2.70;99.90
12384;DHT22;6256;63.808;20.336;2023-04-25T08:46:39;2.70;99.90
12384;DHT22;6256;63.808;20.336;2023-04-25T08:49:08;2.80;99.90
12384;DHT22;6256;63.808;20.336;2023-04-25T08:51:40;2.90;99.90
12384;DHT22;6256;63.808;20.336;2023-04-25T08:54:11;2.90;99.90
12384;DHT22;6256;63.808;20.336;2023-04-25T08:56:39;2.90;99.90
12384;DHT22;6256;63.808;20.336;2023-04-25T08:59:06;2.90;99.90
12384;DHT22;6256;63.808;20.336;2023-04-25T09:01:34;2.90;99.90
12384;DHT22;6256;63.808;20.336;2023-04-25T09:04:01;3.00;99.90
12384;DHT22;6256;63.808;20.336;2023-04-25T09:06:31;2.90;99.90
12384;DHT22;6256;63.808;20.336;2023-04-25T09:09:08;2.90;99.90
12384;DHT22;6256;63.808;20.336;2023-04-25T09:11:36;2.80;99.90
12384;DHT22;6256;63.808;20.336;2023-04-25T09:14:17;2.70;99.90
12384;DHT22;6256;63.808;20.336;2023-04-25T09:16:59;2.70;99.90
12384;DHT22;6256;63.808;20.336;2023-04-25T09:19:32;2.60;99.90
12384;DHT22;6256;63.808;20.336;2023-04-25T09:22:00;2.50;99.90
12384;DHT22;6256;63.808;20.336;2023-04-25T09:24:40;2.50;99.90
12384;DHT22;6256;63.808;20.336;2023-04-25T09:27:27;2.50;99.90
12384;DHT22;6256;63.808;20.336;2023-04-25T09:29:57;2.60;99.90
12384;DHT22;6256;63.808;20.336;2023-04-25T09:32:25;2.60;99.90
12384;DHT22;6256;63.808;20.336;2023-04-25T09:34:52;2.50;99.90
12384;DHT22;6256;63.808;20.336;2023-04-25T09:37:29;2.40;99.90
12384;DHT22;6256;63.808;20.336;2023-04-25T09:39:59;2.30;99.90
12384;DHT22;6256;63.808;20.336;2023-04-25T09:42:28;2.40;99.90
12384;DHT22;6256;63.808;20.336;2023-04-25T09:44:55;2.30;99.90
12384;DHT22;6256;63.808;20.336;2023-04-25T09:47:23;2.20;99.90
12384;DHT22;6256;63.808;20.336;2023-04-25T09:49:50;2.20;99.90
12384;DHT22;6256;63.808;20.336;2023-04-25T09:52:19;2.10;99.90
12384;DHT22;6256;63.808;20.336;2023-04-25T09:54:46;2.10;99.90
12384;DHT22;6256;63.808;20.336;2023-04-25T09:57:14;2.10;99.90
12384;DHT22;6256;63.808;20.336;2023-04-25T09:59:46;2.10;99.90
12384;DHT22;6256;63.808;20.336;2023-04-25T10:02:15;2.00;99.90
12384;DHT22;6256;63.808;20.336;2023-04-25T10:04:45;1.90;99.90
12384;DHT22;6256;63.808;20.336;2023-04-25T10:07:12;2.00;99.90
12384;DHT22;6256;63.808;20.336;2023-04-25T10:09:39;2.00;99.90
12384;DHT22;6256;63.808;20.336;2023-04-25T10:12:06;1.90;99.90
12384;DHT22;6256;63.808;20.336;2023-04-25T10:14:34;1.90;99.90
12384;DHT22;6256;63.808;20.336;2023-04-25T10:17:00;2.00;99.90
12384;DHT22;6256;63.808;20.336;2023-04-25T10:19:27;2.00;99.90
12384;DHT22;6256;63.808;20.336;2023-04-25T10:24:21;1.80;99.90
12384;DHT22;6256;63.808;20.336;2023-04-25T10:26:48;1.60;99.90
12384;DHT22;6256;63.808;20.336;2023-04-25T10:29:24;1.70;99.90
12384;DHT22;6256;63.808;20.336;2023-04-25T10:31:51;1.70;99.90
12384;DHT22;6256;63.808;20.336;2023-04-25T10:34:17;1.70;99.90
12384;DHT22;6256;63.808;20.336;2023-04-25T10:36:52;1.70;99.90
12384;DHT22;6256;63.808;20.336;2023-04-25T10:39:23;1.60;99.90
12384;DHT22;6256;63.808;20.336;2023-04-25T10:41:58;1.50;99.90
12384;DHT22;6256;63.808;20.336;2023-04-25T10:44:28;1.50;99.90
12384;DHT22;6256;63.808;20.336;2023-04-25T10:46:56;1.50;99.90
12384;DHT22;6256;63.808;20.336;2023-04-25T10:49:34;1.40;99.90
12384;DHT22;6256;63.808;20.336;2023-04-25T10:52:24;1.40;99.90
12384;DHT22;6256;63.808;20.336;2023-04-25T10:54:55;1.40;99.90
12384;DHT22;6256;63.808;20.336;2023-04-25T10:57:43;1.40;99.90
12384;DHT22;6256;63.808;20.336;2023-04-25T11:00:19;1.40;99.90
12384;DHT22;6256;63.808;20.336;2023-04-25T11:03:03;1.50;99.90
12384;DHT22;6256;63.808;20.336;2023-04-25T11:05:36;1.50;99.90
12384;DHT22;6256;63.808;20.336;2023-04-25T11:08:02;1.50;99.90
12384;DHT22;6256;63.808;20.336;2023-04-25T11:10:33;1.50;99.90
12384;DHT22;6256;63.808;20.336;2023-04-25T11:13:01;1.50;99.90
12384;DHT22;6256;63.808;20.336;2023-04-25T11:15:27;1.50;99.90
12384;DHT22;6256;63.808;20.336;2023-04-25T11:17:54;1.50;99.90
12384;DHT22;6256;63.808;20.336;2023-04-25T11:20:22;1.50;99.90
12384;DHT22;6256;63.808;20.336;2023-04-25T11:22:48;1.60;99.90
12384;DHT22;6256;63.808;20.336;2023-04-25T11:25:15;1.60;99.90
12384;DHT22;6256;63.808;20.336;2023-04-25T11:27:58;1.60;99.90
12384;DHT22;6256;63.808;20.336;2023-04-25T11:30:26;1.50;99.90
12384;DHT22;6256;63.808;20.336;2023-04-25T11:32:52;1.50;99.90
12384;DHT22;6256;63.808;20.336;2023-04-25T11:35:19;1.50;99.90
12384;DHT22;6256;63.808;20.336;2023-04-25T11:37:46;1.40;99.90
12384;DHT22;6256;63.808;20.336;2023-04-25T11:40:12;1.40;99.90
12384;DHT22;6256;63.808;20.336;2023-04-25T11:42:38;1.40;99.90
12384;DHT22;6256;63.808;20.336;2023-04-25T11:45:05;1.40;99.90
12384;DHT22;6256;63.808;20.336;2023-04-25T11:47:35;1.30;99.90
12384;DHT22;6256;63.808;20.336;2023-04-25T11:50:02;1.30;99.90
12384;DHT22;6256;63.808;20.336;2023-04-25T11:52:47;1.40;99.90
12384;DHT22;6256;63.808;20.336;2023-04-25T11:55:18;1.30;99.90
12384;DHT22;6256;63.808;20.336;2023-04-25T11:57:46;1.30;99.90
12384;DHT22;6256;63.808;20.336;2023-04-25T12:00:17;1.20;99.90
12384;DHT22;6256;63.808;20.336;2023-04-25T12:02:45;1.00;99.90
12384;DHT22;6256;63.808;20.336;2023-04-25T12:05:12;1.00;99.90
12384;DHT22;6256;63.808;20.336;2023-04-25T12:07:38;1.00;99.90
12384;DHT22;6256;63.808;20.336;2023-04-25T12:10:07;1.00;99.90
12384;DHT22;6256;63.808;20.336;2023-04-25T12:12:34;1.00;99.90
12384;DHT22;6256;63.808;20.336;2023-04-25T12:15:17;1.00;99.90
12384;DHT22;6256;63.808;20.336;2023-04-25T12:17:49;1.20;99.90
12384;DHT22;6256;63.808;20.336;2023-04-25T12:22:46;1.20;99.90
12384;DHT22;6256;63.808;20.336;2023-04-25T12:25:17;1.30;99.90
12384;DHT22;6256;63.808;20.336;2023-04-25T12:28:19;1.30;99.90
12384;DHT22;6256;63.808;20.336;2023-04-25T12:31:05;1.30;99.90
12384;DHT22;6256;63.808;20.336;2023-04-25T12:33:36;1.20;99.90
12384;DHT22;6256;63.808;20.336;2023-04-25T12:36:03;1.20;99.90
12384;DHT22;6256;63.808;20.336;2023-04-25T12:38:37;1.20;99.90
12384;DHT22;6256;63.808;20.336;2023-04-25T12:41:03;1.20;99.90
12384;DHT22;6256;63.808;20.336;2023-04-25T12:43:29;1.10;99.90
12384;DHT22;6256;63.808;20.336;2023-04-25T12:45:55;1.20;99.90
12384;DHT22;6256;63.808;20.336;2023-04-25T12:48:22;1.30;99.90
12384;DHT22;6256;63.808;20.336;2023-04-25T12:50:49;1.30;99.90
12384;DHT22;6256;63.808;20.336;2023-04-25T12:53:22;1.40;99.90
12384;DHT22;6256;63.808;20.336;2023-04-25T12:55:49;1.50;99.90
12384;DHT22;6256;63.808;20.336;2023-04-25T12:58:17;1.50;99.90
12384;DHT22;6256;63.808;20.336;2023-04-25T13:00:44;1.60;99.90
12384;DHT22;6256;63.808;20.336;2023-04-25T13:03:10;1.70;99.90
12384;DHT22;6256;63.808;20.336;2023-04-25T13:05:36;1.70;99.90
12384;DHT22;6256;63.808;20.336;2023-04-25T13:08:05;1.70;99.90
12384;DHT22;6256;63.808;20.336;2023-04-25T13:10:31;1.70;99.90
12384;DHT22;6256;63.808;20.336;2023-04-25T13:12:59;1.70;99.90
12384;DHT22;6256;63.808;20.336;2023-04-25T13:15:24;1.70;99.90
12384;DHT22;6256;63.808;20.336;2023-04-25T13:17:50;1.60;99.90
12384;DHT22;6256;63.808;20.336;2023-04-25T13:20:16;1.60;99.90
12384;DHT22;6256;63.808;20.336;2023-04-25T13:22:44;1.60;99.90
12384;DHT22;6256;63.808;20.336;2023-04-25T13:25:11;1.60;99.90
12384;DHT22;6256;63.808;20.336;2023-04-25T13:27:37;1.50;99.90
12384;DHT22;6256;63.808;20.336;2023-04-25T13:30:05;1.50;99.90
12384;DHT22;6256;63.808;20.336;2023-04-25T13:32:37;1.50;99.90
12384;DHT22;6256;63.808;20.336;2023-04-25T13:35:04;1.40;99.90
12384;DHT22;6256;63.808;20.336;2023-04-25T13:37:30;1.50;99.90
12384;DHT22;6256;63.808;20.336;2023-04-25T13:40:00;1.50;99.90
12384;DHT22;6256;63.808;20.336;2023-04-25T13:42:26;1.50;99.90
12384;DHT22;6256;63.808;20.336;2023-04-25T13:44:52;1.60;99.90
12384;DHT22;6256;63.808;20.336;2023-04-25T13:47:17;1.50;99.90
12384;DHT22;6256;63.808;20.336;2023-04-25T13:49:43;1.60;99.90
12384;DHT22;6256;63.808;20.336;2023-04-25T13:52:09;1.60;99.90
12384;DHT22;6256;63.808;20.336;2023-04-25T13:54:35;1.50;99.90
12384;DHT22;6256;63.808;20.336;2023-04-25T13:57:00;1.60;99.90
12384;DHT22;6256;63.808;20.336;2023-04-25T13:59:27;1.50;99.90
12384;DHT22;6256;63.808;20.336;2023-04-25T14:01:53;1.60;99.90
12384;DHT22;6256;63.808;20.336;2023-04-25T14:04:18;1.60;99.90
12384;DHT22;6256;63.808;20.336;2023-04-25T14:06:44;1.60;99.90
12384;DHT22;6256;63.808;20.336;2023-04-25T14:09:11;1.50;99.90
12384;DHT22;6256;63.808;20.336;2023-04-25T14:11:37;1.50;99.90
12384;DHT22;6256;63.808;20.336;2023-04-25T14:14:03;1.50;99.90
12384;DHT22;6256;63.808;20.336;2023-04-25T14:16:30;1.40;99.90
12384;DHT22;6256;63.808;20.336;2023-04-25T14:18:58;1.40;99.90
12384;DHT22;6256;63.808;20.336;2023-04-25T14:21:24;1.40;99.90
12384;DHT22;6256;63.808;20.336;2023-04-25T14:23:49;1.50;99.90
12384;DHT22;6256;63.808;20.336;2023-04-25T14:26:15;1.50;99.90
12384;DHT22;6256;63.808;20.336;2023-04-25T14:28:41;1.40;99.90
12384;DHT22;6256;63.808;20.336;2023-04-25T14:31:07;1.40;99.90
12384;DHT22;6256;63.808;20.336;2023-04-25T14:33:33;1.50;99.90
12384;DHT22;6256;63.808;20.336;2023-04-25T14:35:59;1.50;99.90
12384;DHT22;6256;63.808;20.336;2023-04-25T14:38:25;1.50;99.90
12384;DHT22;6256;63.808;20.336;2023-04-25T14:40:51;1.50;99.90
12384;DHT22;6256;63.808;20.336;2023-04-25T14:43:17;1.50;99.90
12384;DHT22;6256;63.808;20.336;2023-04-25T14:45:43;1.60;99.90
12384;DHT22;6256;63.808;20.336;2023-04-25T14:48:08;1.50;99.90
12384;DHT22;6256;63.808;20.336;2023-04-25T14:50:35;1.50;99.90
12384;DHT22;6256;63.808;20.336;2023-04-25T14:53:00;1.50;99.90
12384;DHT22;6256;63.808;20.336;2023-04-25T14:55:27;1.50;99.90
12384;DHT22;6256;63.808;20.336;2023-04-25T14:57:53;1.50;99.90
12384;DHT22;6256;63.808;20.336;2023-04-25T15:00:20;1.50;99.90
12384;DHT22;6256;63.808;20.336;2023-04-25T15:02:46;1.50;99.90
12384;DHT22;6256;63.808;20.336;2023-04-25T15:05:12;1.50;99.90
12384;DHT22;6256;63.808;20.336;2023-04-25T15:07:39;1.50;99.90
12384;DHT22;6256;63.808;20.336;2023-04-25T15:10:08;1.50;99.90
12384;DHT22;6256;63.808;20.336;2023-04-25T15:12:42;1.60;99.90
12384;DHT22;6256;63.808;20.336;2023-04-25T15:15:09;1.50;99.90
12384;DHT22;6256;63.808;20.336;2023-04-25T15:17:46;1.60;99.90
12384;DHT22;6256;63.808;20.336;2023-04-25T15:20:13;1.60;99.90
12384;DHT22;6256;63.808;20.336;2023-04-25T15:22:40;1.60;99.90
12384;DHT22;6256;63.808;20.336;2023-04-25T15:25:07;1.60;99.90
12384;DHT22;6256;63.808;20.336;2023-04-25T15:27:34;1.60;99.90
12384;DHT22;6256;63.808;20.336;2023-04-25T15:30:06;1.60;99.90
12384;DHT22;6256;63.808;20.336;2023-04-25T15:32:35;1.60;99.90
12384;DHT22;6256;63.808;20.336;2023-04-25T15:35:04;1.60;99.90
12384;DHT22;6256;63.808;20.336;2023-04-25T15:37:30;1.70;99.90
12384;DHT22;6256;63.808;20.336;2023-04-25T15:40:15;1.70;99.90
12384;DHT22;6256;63.808;20.336;2023-04-25T15:42:42;1.70;99.90
12384;DHT22;6256;63.808;20.336;2023-04-25T15:45:10;1.70;99.90
12384;DHT22;6256;63.808;20.336;2023-04-25T15:47:37;1.70;99.90
12384;DHT22;6256;63.808;20.336;2023-04-25T15:50:04;1.70;99.90
12384;DHT22;6256;63.808;20.336;2023-04-25T15:52:31;1.70;99.90
12384;DHT22;6256;63.808;20.336;2023-04-25T15:54:56;1.70;99.90
12384;DHT22;6256;63.808;20.336;2023-04-25T15:57:22;1.70;99.90
12384;DHT22;6256;63.808;20.336;2023-04-25T15:59:48;1.60;99.90
12384;DHT22;6256;63.808;20.336;2023-04-25T16:02:15;1.70;99.90